Alexandria, AL

5:48 PM CDT on May 22, 2015 (GMT -0500)
Angel Community | | Change Station
CLOSE
Current Station
Personal Weather Station
Location: Jacksonville, AL
Elevation: 629 ft
Nearby Weather Stations

Elev 629 ft 33.84 °N, 85.83 °W | Updated 7 seconds ago

Clear
Clear
75.2 °F
Feels Like 78 °F
N
0.0
Wind Variable Wind from ENE
Gusts 0.0 mph

Today
High -- | Low -- °F
--% Chance of Precip.
Yesterday
High -- | Low -- °F
Precip. -- in
5:38 AM 7:42 PM
Waxing Crescent, 24% visible
Pressure 30.19 in
Visibility 10.0 miles
Clouds Clear
Heat Index 78 °F
Dew Point 55 °F
Humidity 50%
Rainfall 0.00 in
Snow Depth Not available.
UV 4 out of 12
Pollen 6.00 out of 12
Air Quality Not available.
Flu Activity Sporadic
METAR KANB 222153Z AUTO 33006KT 10SM CLR 26/11 A3019 RMK AO2 SLP221 T02560106

More Conditions Fewer Conditions

Pressure 30.19 in
Visibility 10.0 miles
Clouds Clear
Heat Index 78 °F
Dew Point 55 °F
Humidity 50%
Rainfall 0.00 in
Snow Depth Not available.
UV 4 out of 12
Pollen 6.00 out of 12
Air Quality Not available.
Flu Activity Sporadic
METAR KANB 222153Z AUTO 33006KT 10SM CLR 26/11 A3019 RMK AO2 SLP221 T02560106

More Conditions Fewer Conditions

10-Day Weather Forecast

Almanac

Astronomy

May. 22, 2015 Rise Set
Actual Time
Civil Twilight
Nautical Twilight
Astronomical Twilight
Moon
Length of Visible Light
Length of Day
Tomorrow will be .
, % of the Moon is Illuminated

Today's Extremes

State Highs State Lows

Community

WunderPhotos

Upload Photos

1,823,323 photos uploaded!

WunderBlogs® & News

Nearby

Air Quality

  Air Quality AQ Index Pollutant
Not available.

Snow Depth

Station Depth Elevation

Earthquake Activity

City Distance Mag. Time & Date
Minimum magnitude displayed is 2.5.

Coastal Water Temperatures

Place Temperature

Stations

Nearby Weather Stations

Station Location Temp. Windchill Dew Point Humidity Wind Precip. Elev Updated Type